Terminal Aerodrome Forecast
Issued by NWS

Current Version | Previous Version | Text Only | Print | Product List | Glossary On
Versions: 1 2 3 4 5 6 7 8 9 10 11 12 13
461
FTUS42 TJSJ 292339
TAFJPS
TAF
TJPS 292339Z 3000/3024 05005KT P6SM SCT060
     FM301300 13010KT P6SM SCT030 SCT060
     FM302300 05005KT P6SM SCT060
      AMD NOT SKED TIL 300300=

USA.gov is the U.S. government's official web portal to all federal, state and local government web resources and services.